sensor_id;sensor_type;location;lat;lon;timestamp;temperature;humidity
12634;DHT22;6382;48.614;8.880;2023-04-23T00:01:42;11.80;99.90
12634;DHT22;6382;48.614;8.880;2023-04-23T00:04:08;11.90;99.90
12634;DHT22;6382;48.614;8.880;2023-04-23T00:06:37;12.80;99.90
12634;DHT22;6382;48.614;8.880;2023-04-23T00:09:05;12.50;99.90
12634;DHT22;6382;48.614;8.880;2023-04-23T00:11:32;11.80;99.90
12634;DHT22;6382;48.614;8.880;2023-04-23T00:13:59;11.80;99.90
12634;DHT22;6382;48.614;8.880;2023-04-23T00:16:26;11.80;99.90
12634;DHT22;6382;48.614;8.880;2023-04-23T00:18:53;11.70;99.90
12634;DHT22;6382;48.614;8.880;2023-04-23T00:21:19;12.70;99.90
12634;DHT22;6382;48.614;8.880;2023-04-23T00:23:46;12.20;99.90
12634;DHT22;6382;48.614;8.880;2023-04-23T00:26:13;11.80;99.90
12634;DHT22;6382;48.614;8.880;2023-04-23T00:28:39;11.80;99.90
12634;DHT22;6382;48.614;8.880;2023-04-23T00:31:06;11.80;99.90
12634;DHT22;6382;48.614;8.880;2023-04-23T00:33:33;11.80;99.90
12634;DHT22;6382;48.614;8.880;2023-04-23T00:36:00;12.30;99.90
12634;DHT22;6382;48.614;8.880;2023-04-23T00:38:26;12.00;99.90
12634;DHT22;6382;48.614;8.880;2023-04-23T00:40:53;11.80;99.90
12634;DHT22;6382;48.614;8.880;2023-04-23T00:43:20;11.80;99.90
12634;DHT22;6382;48.614;8.880;2023-04-23T00:45:47;11.80;99.90
12634;DHT22;6382;48.614;8.880;2023-04-23T00:48:13;12.00;99.90
12634;DHT22;6382;48.614;8.880;2023-04-23T00:50:41;12.60;99.90
12634;DHT22;6382;48.614;8.880;2023-04-23T00:53:07;14.60;99.90
12634;DHT22;6382;48.614;8.880;2023-04-23T00:55:35;13.10;99.90
12634;DHT22;6382;48.614;8.880;2023-04-23T00:58:02;11.90;99.90
12634;DHT22;6382;48.614;8.880;2023-04-23T01:00:29;11.80;99.90
12634;DHT22;6382;48.614;8.880;2023-04-23T01:02:56;11.80;99.90
12634;DHT22;6382;48.614;8.880;2023-04-23T01:05:23;13.90;99.90
12634;DHT22;6382;48.614;8.880;2023-04-23T01:07:50;13.00;99.90
12634;DHT22;6382;48.614;8.880;2023-04-23T01:10:17;11.80;99.90
12634;DHT22;6382;48.614;8.880;2023-04-23T01:12:44;13.10;99.90
12634;DHT22;6382;48.614;8.880;2023-04-23T01:15:11;12.70;99.90
12634;DHT22;6382;48.614;8.880;2023-04-23T01:17:38;14.20;99.90
12634;DHT22;6382;48.614;8.880;2023-04-23T01:20:04;13.70;99.90
12634;DHT22;6382;48.614;8.880;2023-04-23T01:22:35;11.70;99.90
12634;DHT22;6382;48.614;8.880;2023-04-23T01:25:02;13.00;99.90
12634;DHT22;6382;48.614;8.880;2023-04-23T01:27:29;11.70;99.90
12634;DHT22;6382;48.614;8.880;2023-04-23T01:29:57;11.70;99.90
12634;DHT22;6382;48.614;8.880;2023-04-23T01:32:24;13.00;99.90
12634;DHT22;6382;48.614;8.880;2023-04-23T01:34:51;13.20;99.90
12634;DHT22;6382;48.614;8.880;2023-04-23T01:37:19;13.10;99.90
12634;DHT22;6382;48.614;8.880;2023-04-23T01:39:46;11.60;99.90
12634;DHT22;6382;48.614;8.880;2023-04-23T01:42:13;11.60;99.90
12634;DHT22;6382;48.614;8.880;2023-04-23T01:44:40;11.60;99.90
12634;DHT22;6382;48.614;8.880;2023-04-23T01:47:07;11.60;99.90
12634;DHT22;6382;48.614;8.880;2023-04-23T01:49:34;11.50;99.90
12634;DHT22;6382;48.614;8.880;2023-04-23T01:52:01;11.60;99.90
12634;DHT22;6382;48.614;8.880;2023-04-23T01:54:28;11.60;99.90
12634;DHT22;6382;48.614;8.880;2023-04-23T01:56:55;11.50;99.90
12634;DHT22;6382;48.614;8.880;2023-04-23T01:59:22;14.30;99.90
12634;DHT22;6382;48.614;8.880;2023-04-23T02:01:49;11.50;99.90
12634;DHT22;6382;48.614;8.880;2023-04-23T02:04:16;13.00;99.90
12634;DHT22;6382;48.614;8.880;2023-04-23T02:06:44;11.50;99.90
12634;DHT22;6382;48.614;8.880;2023-04-23T02:09:11;13.10;99.90
12634;DHT22;6382;48.614;8.880;2023-04-23T02:11:38;11.90;99.90
12634;DHT22;6382;48.614;8.880;2023-04-23T02:14:05;11.50;99.90
12634;DHT22;6382;48.614;8.880;2023-04-23T02:16:32;12.70;99.90
12634;DHT22;6382;48.614;8.880;2023-04-23T02:19:00;11.40;99.90
12634;DHT22;6382;48.614;8.880;2023-04-23T02:21:27;14.10;99.90
12634;DHT22;6382;48.614;8.880;2023-04-23T02:23:54;12.20;99.90
12634;DHT22;6382;48.614;8.880;2023-04-23T02:26:20;12.40;99.90
12634;DHT22;6382;48.614;8.880;2023-04-23T02:28:48;11.30;99.90
12634;DHT22;6382;48.614;8.880;2023-04-23T02:31:15;11.30;99.90
12634;DHT22;6382;48.614;8.880;2023-04-23T02:33:43;13.30;99.90
12634;DHT22;6382;48.614;8.880;2023-04-23T02:36:10;12.40;99.90
12634;DHT22;6382;48.614;8.880;2023-04-23T02:38:37;11.30;99.90
12634;DHT22;6382;48.614;8.880;2023-04-23T02:41:07;12.30;99.90
12634;DHT22;6382;48.614;8.880;2023-04-23T02:43:34;11.20;99.90
12634;DHT22;6382;48.614;8.880;2023-04-23T02:46:01;11.20;99.90
12634;DHT22;6382;48.614;8.880;2023-04-23T02:48:38;12.10;99.90
12634;DHT22;6382;48.614;8.880;2023-04-23T02:51:06;11.10;99.90
12634;DHT22;6382;48.614;8.880;2023-04-23T02:53:33;11.20;99.90
12634;DHT22;6382;48.614;8.880;2023-04-23T02:56:00;11.10;99.90
12634;DHT22;6382;48.614;8.880;2023-04-23T02:58:27;11.10;99.90
12634;DHT22;6382;48.614;8.880;2023-04-23T03:00:55;11.40;99.90
12634;DHT22;6382;48.614;8.880;2023-04-23T03:03:21;11.10;99.90
12634;DHT22;6382;48.614;8.880;2023-04-23T03:05:52;11.10;99.90
12634;DHT22;6382;48.614;8.880;2023-04-23T03:08:19;11.10;99.90
12634;DHT22;6382;48.614;8.880;2023-04-23T03:10:46;11.00;99.90
12634;DHT22;6382;48.614;8.880;2023-04-23T03:13:12;11.00;99.90
12634;DHT22;6382;48.614;8.880;2023-04-23T03:15:39;11.10;99.90
12634;DHT22;6382;48.614;8.880;2023-04-23T03:18:06;13.00;99.90
12634;DHT22;6382;48.614;8.880;2023-04-23T03:20:36;11.50;99.90
12634;DHT22;6382;48.614;8.880;2023-04-23T03:23:03;10.90;99.90
12634;DHT22;6382;48.614;8.880;2023-04-23T03:25:33;11.00;99.90
12634;DHT22;6382;48.614;8.880;2023-04-23T03:28:00;10.90;99.90
12634;DHT22;6382;48.614;8.880;2023-04-23T03:30:27;10.90;99.90
12634;DHT22;6382;48.614;8.880;2023-04-23T03:32:54;11.20;99.90
12634;DHT22;6382;48.614;8.880;2023-04-23T03:35:22;11.00;99.90
12634;DHT22;6382;48.614;8.880;2023-04-23T03:37:49;10.80;99.90
12634;DHT22;6382;48.614;8.880;2023-04-23T03:40:16;10.80;99.90
12634;DHT22;6382;48.614;8.880;2023-04-23T03:42:43;10.80;99.90
12634;DHT22;6382;48.614;8.880;2023-04-23T03:45:10;12.50;99.90
12634;DHT22;6382;48.614;8.880;2023-04-23T03:47:37;10.70;99.90
12634;DHT22;6382;48.614;8.880;2023-04-23T03:50:03;10.70;99.90
12634;DHT22;6382;48.614;8.880;2023-04-23T03:52:30;10.70;99.90
12634;DHT22;6382;48.614;8.880;2023-04-23T03:54:57;12.30;99.90
12634;DHT22;6382;48.614;8.880;2023-04-23T03:57:24;13.30;99.90
12634;DHT22;6382;48.614;8.880;2023-04-23T03:59:51;10.90;99.90
12634;DHT22;6382;48.614;8.880;2023-04-23T04:02:18;10.80;99.90
12634;DHT22;6382;48.614;8.880;2023-04-23T04:04:45;10.90;99.90
12634;DHT22;6382;48.614;8.880;2023-04-23T04:07:15;11.80;99.90
12634;DHT22;6382;48.614;8.880;2023-04-23T04:09:41;10.90;99.90
12634;DHT22;6382;48.614;8.880;2023-04-23T04:12:08;12.50;99.90
12634;DHT22;6382;48.614;8.880;2023-04-23T04:14:34;13.60;99.90
12634;DHT22;6382;48.614;8.880;2023-04-23T04:17:01;12.70;99.90
12634;DHT22;6382;48.614;8.880;2023-04-23T04:19:28;10.80;99.90
12634;DHT22;6382;48.614;8.880;2023-04-23T04:21:55;11.80;99.90
12634;DHT22;6382;48.614;8.880;2023-04-23T04:24:22;10.70;99.90
12634;DHT22;6382;48.614;8.880;2023-04-23T04:26:51;10.60;99.90
12634;DHT22;6382;48.614;8.880;2023-04-23T04:29:19;10.60;99.90
12634;DHT22;6382;48.614;8.880;2023-04-23T04:31:47;10.50;99.90
12634;DHT22;6382;48.614;8.880;2023-04-23T04:34:14;10.50;99.90
12634;DHT22;6382;48.614;8.880;2023-04-23T04:36:41;10.50;99.90
12634;DHT22;6382;48.614;8.880;2023-04-23T04:39:08;10.40;99.90
12634;DHT22;6382;48.614;8.880;2023-04-23T04:41:35;10.90;99.90
12634;DHT22;6382;48.614;8.880;2023-04-23T04:44:02;10.40;99.90
12634;DHT22;6382;48.614;8.880;2023-04-23T04:46:28;11.60;99.90
12634;DHT22;6382;48.614;8.880;2023-04-23T04:48:57;10.40;99.90
12634;DHT22;6382;48.614;8.880;2023-04-23T04:51:24;10.40;99.90
12634;DHT22;6382;48.614;8.880;2023-04-23T04:53:51;13.30;99.90
12634;DHT22;6382;48.614;8.880;2023-04-23T04:56:18;10.60;99.90
12634;DHT22;6382;48.614;8.880;2023-04-23T04:58:45;11.80;99.90
12634;DHT22;6382;48.614;8.880;2023-04-23T05:01:12;11.60;99.90
12634;DHT22;6382;48.614;8.880;2023-04-23T05:03:39;10.50;99.90
12634;DHT22;6382;48.614;8.880;2023-04-23T05:06:06;12.30;99.90
12634;DHT22;6382;48.614;8.880;2023-04-23T05:08:32;10.60;99.90
12634;DHT22;6382;48.614;8.880;2023-04-23T05:10:59;10.70;99.90
12634;DHT22;6382;48.614;8.880;2023-04-23T05:13:27;10.80;99.90
12634;DHT22;6382;48.614;8.880;2023-04-23T05:15:53;10.70;99.90
12634;DHT22;6382;48.614;8.880;2023-04-23T05:18:20;10.70;99.90
12634;DHT22;6382;48.614;8.880;2023-04-23T05:20:47;12.00;99.90
12634;DHT22;6382;48.614;8.880;2023-04-23T05:23:14;10.80;99.90
12634;DHT22;6382;48.614;8.880;2023-04-23T05:25:41;10.80;99.90
12634;DHT22;6382;48.614;8.880;2023-04-23T05:28:08;12.40;99.90
12634;DHT22;6382;48.614;8.880;2023-04-23T05:30:35;11.00;99.90
12634;DHT22;6382;48.614;8.880;2023-04-23T05:33:01;11.10;99.90
12634;DHT22;6382;48.614;8.880;2023-04-23T05:35:28;12.70;99.90
12634;DHT22;6382;48.614;8.880;2023-04-23T05:37:57;11.20;99.90
12634;DHT22;6382;48.614;8.880;2023-04-23T05:40:24;11.30;99.90
12634;DHT22;6382;48.614;8.880;2023-04-23T05:42:51;13.40;99.90
12634;DHT22;6382;48.614;8.880;2023-04-23T05:45:21;13.00;99.90
12634;DHT22;6382;48.614;8.880;2023-04-23T05:47:48;11.30;99.90
12634;DHT22;6382;48.614;8.880;2023-04-23T05:50:15;13.70;99.90
12634;DHT22;6382;48.614;8.880;2023-04-23T05:52:41;11.50;99.90
12634;DHT22;6382;48.614;8.880;2023-04-23T05:55:09;11.60;99.90
12634;DHT22;6382;48.614;8.880;2023-04-23T05:57:36;11.60;99.90
12634;DHT22;6382;48.614;8.880;2023-04-23T06:00:04;11.80;99.90
12634;DHT22;6382;48.614;8.880;2023-04-23T06:02:31;11.70;99.90
12634;DHT22;6382;48.614;8.880;2023-04-23T06:04:59;11.80;99.90
12634;DHT22;6382;48.614;8.880;2023-04-23T06:07:27;14.40;99.90
12634;DHT22;6382;48.614;8.880;2023-04-23T06:09:53;13.20;99.90
12634;DHT22;6382;48.614;8.880;2023-04-23T06:12:20;11.90;99.90
12634;DHT22;6382;48.614;8.880;2023-04-23T06:14:47;11.90;99.90
12634;DHT22;6382;48.614;8.880;2023-04-23T06:17:14;11.90;99.90
12634;DHT22;6382;48.614;8.880;2023-04-23T06:19:40;11.90;99.90
12634;DHT22;6382;48.614;8.880;2023-04-23T06:22:07;12.10;99.90
12634;DHT22;6382;48.614;8.880;2023-04-23T06:24:34;11.90;99.90
12634;DHT22;6382;48.614;8.880;2023-04-23T06:27:01;13.60;99.90
12634;DHT22;6382;48.614;8.880;2023-04-23T06:29:28;13.70;99.90
12634;DHT22;6382;48.614;8.880;2023-04-23T06:31:54;11.80;99.90
12634;DHT22;6382;48.614;8.880;2023-04-23T06:34:24;13.50;99.90
12634;DHT22;6382;48.614;8.880;2023-04-23T06:36:51;14.70;99.90
12634;DHT22;6382;48.614;8.880;2023-04-23T06:39:18;11.90;99.90
12634;DHT22;6382;48.614;8.880;2023-04-23T06:41:44;12.80;99.90
12634;DHT22;6382;48.614;8.880;2023-04-23T06:44:11;14.10;99.90
12634;DHT22;6382;48.614;8.880;2023-04-23T06:46:37;11.80;99.90
12634;DHT22;6382;48.614;8.880;2023-04-23T06:49:04;14.30;99.90
12634;DHT22;6382;48.614;8.880;2023-04-23T06:51:31;11.70;99.90
12634;DHT22;6382;48.614;8.880;2023-04-23T06:53:58;11.60;99.90
12634;DHT22;6382;48.614;8.880;2023-04-23T06:56:24;11.60;99.90
12634;DHT22;6382;48.614;8.880;2023-04-23T06:58:52;12.60;99.90
12634;DHT22;6382;48.614;8.880;2023-04-23T07:01:19;13.00;99.90
12634;DHT22;6382;48.614;8.880;2023-04-23T07:03:46;11.80;99.90
12634;DHT22;6382;48.614;8.880;2023-04-23T07:06:14;11.80;99.90
12634;DHT22;6382;48.614;8.880;2023-04-23T07:08:42;12.00;99.90
12634;DHT22;6382;48.614;8.880;2023-04-23T07:11:09;12.20;99.90
12634;DHT22;6382;48.614;8.880;2023-04-23T07:13:36;12.10;99.90
12634;DHT22;6382;48.614;8.880;2023-04-23T07:16:03;12.00;99.90
12634;DHT22;6382;48.614;8.880;2023-04-23T07:18:30;12.00;99.90
12634;DHT22;6382;48.614;8.880;2023-04-23T07:20:56;12.70;99.90
12634;DHT22;6382;48.614;8.880;2023-04-23T07:23:23;13.00;99.90
12634;DHT22;6382;48.614;8.880;2023-04-23T07:25:50;10.80;99.90
12634;DHT22;6382;48.614;8.880;2023-04-23T07:28:17;15.10;99.90
12634;DHT22;6382;48.614;8.880;2023-04-23T07:30:44;15.70;99.90
12634;DHT22;6382;48.614;8.880;2023-04-23T07:33:11;13.90;99.90
12634;DHT22;6382;48.614;8.880;2023-04-23T07:35:37;13.10;99.90
12634;DHT22;6382;48.614;8.880;2023-04-23T07:38:04;13.10;99.90
12634;DHT22;6382;48.614;8.880;2023-04-23T07:40:31;12.80;99.90
12634;DHT22;6382;48.614;8.880;2023-04-23T07:42:58;14.30;99.90
12634;DHT22;6382;48.614;8.880;2023-04-23T07:45:25;13.00;99.90
12634;DHT22;6382;48.614;8.880;2023-04-23T07:47:51;14.50;99.90
12634;DHT22;6382;48.614;8.880;2023-04-23T07:50:18;14.60;99.90
12634;DHT22;6382;48.614;8.880;2023-04-23T07:52:45;13.00;99.90
12634;DHT22;6382;48.614;8.880;2023-04-23T07:55:13;16.20;99.90
12634;DHT22;6382;48.614;8.880;2023-04-23T07:57:40;13.40;99.90
12634;DHT22;6382;48.614;8.880;2023-04-23T08:00:07;12.90;99.90
12634;DHT22;6382;48.614;8.880;2023-04-23T08:02:35;13.00;99.90
12634;DHT22;6382;48.614;8.880;2023-04-23T08:05:03;14.40;99.90
12634;DHT22;6382;48.614;8.880;2023-04-23T08:07:30;13.00;99.90
12634;DHT22;6382;48.614;8.880;2023-04-23T08:09:57;13.10;99.90
12634;DHT22;6382;48.614;8.880;2023-04-23T08:12:28;13.70;99.90
12634;DHT22;6382;48.614;8.880;2023-04-23T08:14:56;13.10;99.90
12634;DHT22;6382;48.614;8.880;2023-04-23T08:17:23;13.30;99.90
12634;DHT22;6382;48.614;8.880;2023-04-23T08:19:50;13.50;99.90
12634;DHT22;6382;48.614;8.880;2023-04-23T08:22:17;13.50;99.90
12634;DHT22;6382;48.614;8.880;2023-04-23T08:24:45;14.30;99.90
12634;DHT22;6382;48.614;8.880;2023-04-23T08:27:12;13.90;99.90
12634;DHT22;6382;48.614;8.880;2023-04-23T08:29:39;14.00;99.90
12634;DHT22;6382;48.614;8.880;2023-04-23T08:32:07;14.20;99.90
12634;DHT22;6382;48.614;8.880;2023-04-23T08:34:34;15.90;99.90
12634;DHT22;6382;48.614;8.880;2023-04-23T08:37:01;17.60;99.90
12634;DHT22;6382;48.614;8.880;2023-04-23T08:39:28;14.70;99.90
12634;DHT22;6382;48.614;8.880;2023-04-23T08:41:58;15.40;99.90
12634;DHT22;6382;48.614;8.880;2023-04-23T08:44:29;14.70;99.90
12634;DHT22;6382;48.614;8.880;2023-04-23T08:46:56;14.80;99.90
12634;DHT22;6382;48.614;8.880;2023-04-23T08:49:23;16.90;99.90
12634;DHT22;6382;48.614;8.880;2023-04-23T08:51:54;14.80;99.90
12634;DHT22;6382;48.614;8.880;2023-04-23T08:54:27;15.00;99.90
12634;DHT22;6382;48.614;8.880;2023-04-23T08:56:57;15.00;99.90
12634;DHT22;6382;48.614;8.880;2023-04-23T08:59:24;15.00;99.90
12634;DHT22;6382;48.614;8.880;2023-04-23T09:01:52;16.50;99.90
12634;DHT22;6382;48.614;8.880;2023-04-23T09:04:19;15.10;99.90
12634;DHT22;6382;48.614;8.880;2023-04-23T09:06:46;15.00;99.90
12634;DHT22;6382;48.614;8.880;2023-04-23T09:09:14;15.10;99.90
12634;DHT22;6382;48.614;8.880;2023-04-23T09:11:41;15.50;99.90
12634;DHT22;6382;48.614;8.880;2023-04-23T09:14:08;14.90;99.90
12634;DHT22;6382;48.614;8.880;2023-04-23T09:16:35;14.90;99.90
12634;DHT22;6382;48.614;8.880;2023-04-23T09:19:02;15.00;99.90
12634;DHT22;6382;48.614;8.880;2023-04-23T09:21:29;15.00;99.90
12634;DHT22;6382;48.614;8.880;2023-04-23T09:23:55;15.20;99.90
12634;DHT22;6382;48.614;8.880;2023-04-23T09:26:22;15.30;99.90
12634;DHT22;6382;48.614;8.880;2023-04-23T09:28:49;15.30;99.90
12634;DHT22;6382;48.614;8.880;2023-04-23T09:31:19;16.90;99.90
12634;DHT22;6382;48.614;8.880;2023-04-23T09:33:49;15.60;99.90
12634;DHT22;6382;48.614;8.880;2023-04-23T09:36:18;17.20;99.90
12634;DHT22;6382;48.614;8.880;2023-04-23T09:38:45;15.80;99.90
12634;DHT22;6382;48.614;8.880;2023-04-23T09:43:48;16.00;99.90
12634;DHT22;6382;48.614;8.880;2023-04-23T09:46:15;16.20;99.90
12634;DHT22;6382;48.614;8.880;2023-04-23T09:48:42;18.10;99.90
12634;DHT22;6382;48.614;8.880;2023-04-23T09:51:10;16.30;99.90
12634;DHT22;6382;48.614;8.880;2023-04-23T09:53:42;16.50;99.90
12634;DHT22;6382;48.614;8.880;2023-04-23T09:56:08;16.80;99.90
12634;DHT22;6382;48.614;8.880;2023-04-23T09:58:35;17.30;99.90
12634;DHT22;6382;48.614;8.880;2023-04-23T10:01:09;19.20;99.90
12634;DHT22;6382;48.614;8.880;2023-04-23T10:03:40;17.10;99.90
12634;DHT22;6382;48.614;8.880;2023-04-23T10:06:12;17.10;99.90
12634;DHT22;6382;48.614;8.880;2023-04-23T10:08:58;17.00;99.90
12634;DHT22;6382;48.614;8.880;2023-04-23T10:11:25;17.00;99.90
12634;DHT22;6382;48.614;8.880;2023-04-23T10:13:52;19.50;99.90
12634;DHT22;6382;48.614;8.880;2023-04-23T10:16:19;17.10;99.90
12634;DHT22;6382;48.614;8.880;2023-04-23T10:18:53;17.10;99.90
12634;DHT22;6382;48.614;8.880;2023-04-23T10:21:24;17.30;99.90
12634;DHT22;6382;48.614;8.880;2023-04-23T10:24:05;18.70;99.90
12634;DHT22;6382;48.614;8.880;2023-04-23T10:26:33;17.20;99.90
12634;DHT22;6382;48.614;8.880;2023-04-23T10:29:00;18.70;99.90
12634;DHT22;6382;48.614;8.880;2023-04-23T10:31:30;18.30;99.90
12634;DHT22;6382;48.614;8.880;2023-04-23T10:33:57;17.30;99.90
12634;DHT22;6382;48.614;8.880;2023-04-23T10:36:25;17.30;99.90
12634;DHT22;6382;48.614;8.880;2023-04-23T10:38:53;17.50;99.90
12634;DHT22;6382;48.614;8.880;2023-04-23T10:41:26;17.50;99.90
12634;DHT22;6382;48.614;8.880;2023-04-23T10:43:56;19.60;99.90
12634;DHT22;6382;48.614;8.880;2023-04-23T10:46:32;17.50;99.90
12634;DHT22;6382;48.614;8.880;2023-04-23T10:49:12;17.50;99.90
12634;DHT22;6382;48.614;8.880;2023-04-23T10:51:45;17.60;99.90
12634;DHT22;6382;48.614;8.880;2023-04-23T10:54:17;17.70;99.90
12634;DHT22;6382;48.614;8.880;2023-04-23T10:56:44;19.30;99.90
12634;DHT22;6382;48.614;8.880;2023-04-23T10:59:18;17.70;99.90
12634;DHT22;6382;48.614;8.880;2023-04-23T11:01:46;17.70;99.90
12634;DHT22;6382;48.614;8.880;2023-04-23T11:07:09;17.60;99.90
12634;DHT22;6382;48.614;8.880;2023-04-23T11:09:37;17.60;99.90
12634;DHT22;6382;48.614;8.880;2023-04-23T11:12:09;17.70;99.90
12634;DHT22;6382;48.614;8.880;2023-04-23T11:17:12;17.90;99.90
12634;DHT22;6382;48.614;8.880;2023-04-23T11:19:40;18.20;99.90
12634;DHT22;6382;48.614;8.880;2023-04-23T11:22:14;21.50;99.90
12634;DHT22;6382;48.614;8.880;2023-04-23T11:24:46;18.40;99.90
12634;DHT22;6382;48.614;8.880;2023-04-23T11:27:16;18.40;99.90
12634;DHT22;6382;48.614;8.880;2023-04-23T11:29:44;18.30;99.90
12634;DHT22;6382;48.614;8.880;2023-04-23T11:32:12;19.90;99.90
12634;DHT22;6382;48.614;8.880;2023-04-23T11:34:44;19.20;99.90
12634;DHT22;6382;48.614;8.880;2023-04-23T11:37:14;19.90;99.90
12634;DHT22;6382;48.614;8.880;2023-04-23T11:39:42;18.50;99.90
12634;DHT22;6382;48.614;8.880;2023-04-23T11:42:10;18.50;99.90
12634;DHT22;6382;48.614;8.880;2023-04-23T11:44:39;20.30;99.90
12634;DHT22;6382;48.614;8.880;2023-04-23T11:47:07;20.30;99.90
12634;DHT22;6382;48.614;8.880;2023-04-23T11:49:35;18.60;99.90
12634;DHT22;6382;48.614;8.880;2023-04-23T11:52:03;19.30;99.90
12634;DHT22;6382;48.614;8.880;2023-04-23T11:54:30;19.90;99.90
12634;DHT22;6382;48.614;8.880;2023-04-23T11:56:57;21.10;99.90
12634;DHT22;6382;48.614;8.880;2023-04-23T11:59:25;18.70;99.90
12634;DHT22;6382;48.614;8.880;2023-04-23T12:01:53;18.70;99.90
12634;DHT22;6382;48.614;8.880;2023-04-23T12:04:21;19.50;99.90
12634;DHT22;6382;48.614;8.880;2023-04-23T12:06:49;18.80;99.90
12634;DHT22;6382;48.614;8.880;2023-04-23T12:09:17;19.00;99.90
12634;DHT22;6382;48.614;8.880;2023-04-23T12:11:44;18.90;99.90
12634;DHT22;6382;48.614;8.880;2023-04-23T12:14:12;18.80;99.90
12634;DHT22;6382;48.614;8.880;2023-04-23T12:16:43;18.70;99.90
12634;DHT22;6382;48.614;8.880;2023-04-23T12:19:14;18.60;99.90
12634;DHT22;6382;48.614;8.880;2023-04-23T12:21:51;18.60;99.90
12634;DHT22;6382;48.614;8.880;2023-04-23T12:24:21;18.70;99.90
12634;DHT22;6382;48.614;8.880;2023-04-23T12:26:50;18.80;99.90
12634;DHT22;6382;48.614;8.880;2023-04-23T12:29:23;18.80;99.90
12634;DHT22;6382;48.614;8.880;2023-04-23T12:31:50;19.30;99.90
12634;DHT22;6382;48.614;8.880;2023-04-23T12:34:20;21.70;99.90
12634;DHT22;6382;48.614;8.880;2023-04-23T12:36:51;18.60;99.90
12634;DHT22;6382;48.614;8.880;2023-04-23T12:39:28;18.50;99.90
12634;DHT22;6382;48.614;8.880;2023-04-23T12:44:27;18.20;99.90
12634;DHT22;6382;48.614;8.880;2023-04-23T12:49:23;19.10;99.90
12634;DHT22;6382;48.614;8.880;2023-04-23T12:51:53;18.20;99.90
12634;DHT22;6382;48.614;8.880;2023-04-23T12:54:24;18.30;99.90
12634;DHT22;6382;48.614;8.880;2023-04-23T12:56:51;18.30;99.90
12634;DHT22;6382;48.614;8.880;2023-04-23T12:59:18;18.30;99.90
12634;DHT22;6382;48.614;8.880;2023-04-23T13:01:44;18.50;99.90
12634;DHT22;6382;48.614;8.880;2023-04-23T13:04:11;18.50;99.90
12634;DHT22;6382;48.614;8.880;2023-04-23T13:06:38;18.40;99.90
12634;DHT22;6382;48.614;8.880;2023-04-23T13:09:05;18.40;99.90
12634;DHT22;6382;48.614;8.880;2023-04-23T13:11:38;18.30;99.90
12634;DHT22;6382;48.614;8.880;2023-04-23T13:14:06;18.30;99.90
12634;DHT22;6382;48.614;8.880;2023-04-23T13:16:33;18.40;99.90
12634;DHT22;6382;48.614;8.880;2023-04-23T13:19:00;18.90;99.90
12634;DHT22;6382;48.614;8.880;2023-04-23T13:21:26;18.70;99.90
12634;DHT22;6382;48.614;8.880;2023-04-23T13:23:53;21.00;99.90
12634;DHT22;6382;48.614;8.880;2023-04-23T13:26:20;18.80;99.90
12634;DHT22;6382;48.614;8.880;2023-04-23T13:28:48;18.80;99.90
12634;DHT22;6382;48.614;8.880;2023-04-23T13:31:15;18.90;99.90
12634;DHT22;6382;48.614;8.880;2023-04-23T13:33:41;18.90;99.90
12634;DHT22;6382;48.614;8.880;2023-04-23T13:36:08;18.90;99.90
12634;DHT22;6382;48.614;8.880;2023-04-23T13:38:35;18.80;99.90
12634;DHT22;6382;48.614;8.880;2023-04-23T13:41:02;18.90;99.90
12634;DHT22;6382;48.614;8.880;2023-04-23T13:43:29;19.00;99.90
12634;DHT22;6382;48.614;8.880;2023-04-23T13:45:56;19.10;99.90
12634;DHT22;6382;48.614;8.880;2023-04-23T13:48:23;20.60;99.90
12634;DHT22;6382;48.614;8.880;2023-04-23T13:50:54;19.20;99.90
12634;DHT22;6382;48.614;8.880;2023-04-23T13:53:21;19.20;99.90
12634;DHT22;6382;48.614;8.880;2023-04-23T13:55:48;21.00;99.90
12634;DHT22;6382;48.614;8.880;2023-04-23T13:58:15;19.00;99.90
12634;DHT22;6382;48.614;8.880;2023-04-23T14:00:42;20.00;99.90
12634;DHT22;6382;48.614;8.880;2023-04-23T14:03:09;18.70;99.90
12634;DHT22;6382;48.614;8.880;2023-04-23T14:05:36;18.70;99.90
12634;DHT22;6382;48.614;8.880;2023-04-23T14:08:03;18.80;99.90
12634;DHT22;6382;48.614;8.880;2023-04-23T14:10:30;18.90;99.90
12634;DHT22;6382;48.614;8.880;2023-04-23T14:12:59;19.00;99.90
12634;DHT22;6382;48.614;8.880;2023-04-23T14:15:26;20.60;99.90
12634;DHT22;6382;48.614;8.880;2023-04-23T14:17:52;19.20;99.90
12634;DHT22;6382;48.614;8.880;2023-04-23T14:20:19;22.40;99.90
12634;DHT22;6382;48.614;8.880;2023-04-23T14:22:47;19.20;99.90
12634;DHT22;6382;48.614;8.880;2023-04-23T14:25:14;19.10;99.90
12634;DHT22;6382;48.614;8.880;2023-04-23T14:27:49;20.00;99.90
12634;DHT22;6382;48.614;8.880;2023-04-23T14:30:18;18.80;99.90
12634;DHT22;6382;48.614;8.880;2023-04-23T14:32:45;18.70;99.90
12634;DHT22;6382;48.614;8.880;2023-04-23T14:35:15;18.60;99.90
12634;DHT22;6382;48.614;8.880;2023-04-23T14:37:54;18.60;99.90
12634;DHT22;6382;48.614;8.880;2023-04-23T14:40:21;18.00;99.90
12634;DHT22;6382;48.614;8.880;2023-04-23T14:42:48;18.70;99.90
12634;DHT22;6382;48.614;8.880;2023-04-23T14:45:15;21.30;99.90
12634;DHT22;6382;48.614;8.880;2023-04-23T14:47:44;18.60;99.90
12634;DHT22;6382;48.614;8.880;2023-04-23T14:50:14;18.60;99.90
12634;DHT22;6382;48.614;8.880;2023-04-23T14:52:42;18.50;99.90
12634;DHT22;6382;48.614;8.880;2023-04-23T14:55:13;18.50;99.90
12634;DHT22;6382;48.614;8.880;2023-04-23T14:57:40;18.30;99.90
12634;DHT22;6382;48.614;8.880;2023-04-23T15:00:06;18.60;99.90
12634;DHT22;6382;48.614;8.880;2023-04-23T15:02:34;18.20;99.90
12634;DHT22;6382;48.614;8.880;2023-04-23T15:05:01;18.10;99.90
12634;DHT22;6382;48.614;8.880;2023-04-23T15:07:28;18.00;99.90
12634;DHT22;6382;48.614;8.880;2023-04-23T15:09:57;17.90;99.90
12634;DHT22;6382;48.614;8.880;2023-04-23T15:15:03;17.20;99.90
12634;DHT22;6382;48.614;8.880;2023-04-23T15:17:30;16.50;99.90
12634;DHT22;6382;48.614;8.880;2023-04-23T15:19:57;16.20;99.90
12634;DHT22;6382;48.614;8.880;2023-04-23T15:22:25;16.10;99.90
12634;DHT22;6382;48.614;8.880;2023-04-23T15:24:52;16.10;99.90
12634;DHT22;6382;48.614;8.880;2023-04-23T15:27:19;16.40;99.90
12634;DHT22;6382;48.614;8.880;2023-04-23T15:29:47;16.10;99.90
12634;DHT22;6382;48.614;8.880;2023-04-23T15:32:15;16.10;99.90
12634;DHT22;6382;48.614;8.880;2023-04-23T15:34:41;16.20;99.90
12634;DHT22;6382;48.614;8.880;2023-04-23T15:37:08;16.20;99.90
12634;DHT22;6382;48.614;8.880;2023-04-23T15:39:35;16.40;99.90
12634;DHT22;6382;48.614;8.880;2023-04-23T15:42:02;16.50;99.90
12634;DHT22;6382;48.614;8.880;2023-04-23T15:44:28;16.50;99.90
12634;DHT22;6382;48.614;8.880;2023-04-23T15:46:55;16.60;99.90
12634;DHT22;6382;48.614;8.880;2023-04-23T15:49:22;16.70;99.90
12634;DHT22;6382;48.614;8.880;2023-04-23T15:51:48;16.70;99.90
12634;DHT22;6382;48.614;8.880;2023-04-23T15:54:15;16.70;99.90
12634;DHT22;6382;48.614;8.880;2023-04-23T15:56:42;16.70;99.90
12634;DHT22;6382;48.614;8.880;2023-04-23T15:59:09;16.70;99.90
12634;DHT22;6382;48.614;8.880;2023-04-23T16:01:35;16.60;99.90
12634;DHT22;6382;48.614;8.880;2023-04-23T16:04:02;17.60;99.90